Time;durP1;ratioP1;P1;durP2;ratioP2;P2;SDS_P1;SDS_P2;PMS_P1;PMS_P2;Temp;Humidity;BMP_temperature;BMP_pressure;BME280_temperature;BME280_humidity;BME280_pressure;Samples;Min_cycle;Max_cycle;Signal;HPM_P1;HPM_P2
2021/08/11 00:01:59;;;;;;;2.00;1.35;;;;;;;;;;4112505;28;20026;-47
2021/08/11 00:04:01;;;;;;;3.10;1.45;;;;;;;;;;4115633;28;20639;-46
2021/08/11 00:06:03;;;;;;;3.63;1.10;;;;;;;;;;4110705;28;20417;-46
2021/08/11 00:08:05;;;;;;;6.18;1.80;;;;;;;;;;4115604;28;20710;-46
2021/08/11 00:10:08;;;;;;;3.78;1.60;;;;;;;;;;4112732;28;20131;-45
2021/08/11 00:12:10;;;;;;;3.33;1.60;;;;;;;;;;4111705;28;20041;-50
2021/08/11 00:14:12;;;;;;;3.75;1.40;;;17.00;62.90;;;;;;4109976;28;20470;-46
2021/08/11 00:16:15;;;;;;;2.08;1.30;;;17.80;62.50;;;;;;4113862;28;20398;-49
2021/08/11 00:18:17;;;;;;;3.78;1.30;;;;;;;;;;4116148;28;20570;-45
2021/08/11 00:20:19;;;;;;;1.80;1.20;;;;;;;;;;4114308;28;20463;-46
2021/08/11 00:22:22;;;;;;;1.80;1.27;;;;;;;;;;4111936;28;21089;-46
2021/08/11 00:24:24;;;;;;;1.70;1.40;;;;;;;;;;4112894;28;20112;-46
2021/08/11 00:26:26;;;;;;;2.42;1.60;;;18.40;61.40;;;;;;4114713;28;20034;-47
2021/08/11 00:28:28;;;;;;;3.53;1.70;;;21.20;55.50;;;;;;4115040;28;20720;-46
2021/08/11 00:30:30;;;;;;;2.88;1.48;;;;;;;;;;4112868;28;20422;-52
2021/08/11 00:32:32;;;;;;;1.83;1.30;;;21.60;54.80;;;;;;4116678;28;20983;-47
2021/08/11 00:34:34;;;;;;;2.15;1.25;;;22.30;53.40;;;;;;4118471;28;20104;-48
2021/08/11 00:36:36;;;;;;;1.50;1.17;;;22.70;52.80;;;;;;4114058;28;20038;-50
2021/08/11 00:38:38;;;;;;;1.60;1.27;;;23.00;52.30;;;;;;4114170;28;20034;-49
2021/08/11 00:40:40;;;;;;;3.38;1.25;;;23.30;51.70;;;;;;4112748;28;20697;-47
2021/08/11 00:42:42;;;;;;;1.73;1.10;;;23.60;51.30;;;;;;4114822;28;20041;-49
2021/08/11 00:44:44;;;;;;;2.00;1.08;;;23.80;50.70;;;;;;4117069;28;20029;-51
2021/08/11 00:46:47;;;;;;;1.25;1.10;;;24.20;50.40;;;;;;4115541;28;20034;-47
2021/08/11 00:48:49;;;;;;;1.40;0.90;;;24.40;50.10;;;;;;4115683;28;20115;-48
2021/08/11 00:50:51;;;;;;;1.77;1.10;;;24.60;49.50;;;;;;4116821;28;20035;-49
2021/08/11 00:52:54;;;;;;;2.03;1.37;;;24.80;49.30;;;;;;4115867;28;20053;-48
2021/08/11 00:54:57;;;;;;;1.43;1.20;;;24.70;49.20;;;;;;4114018;28;20113;-49
2021/08/11 00:56:59;;;;;;;3.35;1.20;;;24.50;49.20;;;;;;4113511;28;20120;-46
2021/08/11 00:59:03;;;;;;;1.40;1.10;;;24.20;49.30;;;;;;4115144;28;20378;-45
2021/08/11 01:01:06;;;;;;;1.08;0.90;;;24.00;49.70;;;;;;4114989;28;20053;-49
2021/08/11 01:03:15;;;;;;;3.17;1.50;;;23.70;49.60;;;;;;4113617;28;20971;-48
2021/08/11 01:05:19;;;;;;;2.22;1.23;;;23.50;49.30;;;;;;4115546;28;20133;-51
2021/08/11 01:07:23;;;;;;;2.65;1.70;;;23.20;49.50;;;;;;4113360;28;20045;-51
2021/08/11 01:09:25;;;;;;;3.53;1.58;;;23.10;49.80;;;;;;4113689;28;20594;-48
2021/08/11 01:11:28;;;;;;;2.00;1.42;;;22.90;50.40;;;;;;4116574;28;20137;-48
2021/08/11 01:13:31;;;;;;;2.25;1.42;;;22.80;50.50;;;;;;4111019;28;20070;-50
2021/08/11 01:15:33;;;;;;;3.13;1.60;;;22.60;50.50;;;;;;4114070;28;20164;-46
2021/08/11 01:17:35;;;;;;;4.47;2.00;;;22.50;51.20;;;;;;4114221;28;20042;-49
2021/08/11 01:19:38;;;;;;;2.80;1.50;;;22.40;51.50;;;;;;4112105;28;20732;-49
2021/08/11 01:21:54;;;;;;;4.45;1.50;;;22.40;51.50;;;;;;4113405;28;20088;-52
2021/08/11 01:24:16;;;;;;;1.30;1.10;;;22.30;51.40;;;;;;4114111;28;20499;-48
2021/08/11 01:26:41;;;;;;;2.20;1.20;;;22.20;52.30;;;;;;4114689;28;20034;-52
2021/08/11 01:29:06;;;;;;;2.10;1.10;;;22.10;51.50;;;;;;4116064;28;20030;-49
2021/08/11 01:31:20;;;;;;;2.53;1.40;;;22.00;51.60;;;;;;4107034;28;20045;-47
2021/08/11 01:33:37;;;;;;;1.92;1.10;;;21.90;52.00;;;;;;4115545;28;20046;-47
2021/08/11 01:35:47;;;;;;;1.95;1.17;;;21.80;52.30;;;;;;4126144;28;20057;-49
2021/08/11 01:37:54;;;;;;;2.05;1.20;;;21.80;52.60;;;;;;4131019;28;20323;-50
2021/08/11 01:40:01;;;;;;;3.92;1.50;;;21.80;52.90;;;;;;4131340;28;20277;-45
2021/08/11 01:42:24;;;;;;;3.22;1.33;;;21.70;53.10;;;;;;4130266;28;20045;-47
2021/08/11 01:44:33;;;;;;;1.65;1.05;;;21.70;53.30;;;;;;4130835;28;20168;-46
2021/08/11 01:46:40;;;;;;;1.67;1.00;;;21.70;53.30;;;;;;4130996;28;20040;-48
2021/08/11 01:48:44;;;;;;;1.60;1.20;;;21.70;53.40;;;;;;4133700;28;20045;-45
2021/08/11 01:50:46;;;;;;;2.58;1.00;;;21.60;53.50;;;;;;4132633;28;20351;-47
2021/08/11 01:52:50;;;;;;;3.33;1.30;;;21.60;53.60;;;;;;4135883;28;20141;-47
2021/08/11 01:54:53;;;;;;;2.40;1.42;;;21.60;53.20;;;;;;4129182;28;20447;-48
2021/08/11 01:56:57;;;;;;;1.98;1.20;;;21.50;52.70;;;;;;4129252;28;20334;-51
2021/08/11 01:59:02;;;;;;;3.22;1.60;;;21.40;52.80;;;;;;4130836;28;20131;-47
2021/08/11 02:01:09;;;;;;;3.22;1.38;;;21.40;52.50;;;;;;4128542;28;20084;-50
2021/08/11 02:03:12;;;;;;;3.00;1.40;;;21.30;52.50;;;;;;4129466;28;20411;-47
2021/08/11 02:05:16;;;;;;;2.72;1.80;;;21.30;52.50;;;;;;4127788;28;20029;-47
2021/08/11 02:07:18;;;;;;;2.17;1.20;;;21.30;52.50;;;;;;4127676;28;20049;-51
2021/08/11 02:09:21;;;;;;;1.65;1.33;;;21.20;52.50;;;;;;4129767;28;20033;-48
2021/08/11 02:11:24;;;;;;;2.47;1.58;;;21.20;52.60;;;;;;4128543;28;20131;-47
2021/08/11 02:13:27;;;;;;;2.15;1.35;;;21.10;52.60;;;;;;4129503;28;20124;-50
2021/08/11 02:15:29;;;;;;;2.75;1.30;;;21.10;52.60;;;;;;4126997;28;20034;-52
2021/08/11 02:17:31;;;;;;;1.25;1.13;;;21.00;52.60;;;;;;4129514;28;20030;-46
2021/08/11 02:19:33;;;;;;;1.02;1.00;;;21.00;52.80;;;;;;4130302;28;20037;-47
2021/08/11 02:21:37;;;;;;;1.85;1.42;;;21.00;52.90;;;;;;4130821;28;20037;-47
2021/08/11 02:23:39;;;;;;;;;;;20.90;52.90;;;;;;4128410;28;20569;-46
2021/08/11 02:25:56;;;;;;;2.78;1.52;;;20.90;53.00;;;;;;4132866;28;19929;-47
2021/08/11 02:28:13;;;;;;;2.03;1.30;;;20.90;53.10;;;;;;4129359;28;20134;-46
2021/08/11 02:30:20;;;;;;;1.80;1.30;;;20.80;53.10;;;;;;4126636;28;20510;-49
2021/08/11 02:32:48;;;;;;;2.40;1.20;;;20.80;53.10;;;;;;4132398;28;20478;-50
2021/08/11 02:35:05;;;;;;;1.45;1.08;;;20.80;53.20;;;;;;4130051;28;20061;-51
2021/08/11 02:37:13;;;;;;;2.15;1.30;;;20.80;53.20;;;;;;4125894;28;20251;-51
2021/08/11 02:39:18;;;;;;;2.25;1.33;;;20.80;53.30;;;;;;4132826;28;20194;-48
2021/08/11 02:41:29;;;;;;;1.60;1.08;;;20.70;53.30;;;;;;4130344;28;20625;-49
2021/08/11 02:43:36;;;;;;;2.25;1.27;;;20.70;53.30;;;;;;4134293;28;20033;-49
2021/08/11 02:45:41;;;;;;;2.05;1.17;;;20.70;53.30;;;;;;4131387;28;20251;-46
2021/08/11 02:47:44;;;;;;;2.58;1.27;;;20.70;53.30;;;;;;4131710;28;20045;-48
2021/08/11 02:49:46;;;;;;;;;;;20.70;53.30;;;;;;4130861;28;20030;-48
2021/08/11 02:51:49;;;;;;;2.33;1.30;;;20.70;53.30;;;;;;4131090;28;20378;-51
2021/08/11 02:53:52;;;;;;;1.73;1.17;;;20.70;53.40;;;;;;4133307;28;20029;-48
2021/08/11 02:55:54;;;;;;;1.55;1.33;;;20.70;53.40;;;;;;4131984;28;20030;-47
2021/08/11 02:57:57;;;;;;;3.00;1.70;;;20.70;53.40;;;;;;4132430;28;20038;-49
2021/08/11 03:00:00;;;;;;;2.35;1.48;;;20.70;53.40;;;;;;4133081;28;20030;-50
2021/08/11 03:02:02;;;;;;;1.77;1.30;;;20.70;53.40;;;;;;4129885;28;20034;-48
2021/08/11 03:04:05;;;;;;;1.58;1.10;;;20.70;53.50;;;;;;4125748;28;20034;-49
2021/08/11 03:06:07;;;;;;;2.35;1.55;;;20.70;53.50;;;;;;4133175;28;20601;-51
2021/08/11 03:08:10;;;;;;;1.30;1.20;;;20.70;53.50;;;;;;4129694;28;20070;-53
2021/08/11 03:10:12;;;;;;;2.95;1.38;;;20.70;53.60;;;;;;4135058;28;20160;-49
2021/08/11 03:12:15;;;;;;;2.00;1.30;;;20.70;53.50;;;;;;4130037;28;20065;-49
2021/08/11 03:14:18;;;;;;;2.25;1.55;;;20.70;53.50;;;;;;4130326;28;20950;-54
2021/08/11 03:16:20;;;;;;;2.30;1.77;;;20.70;53.50;;;;;;4134518;28;20041;-48
2021/08/11 03:18:22;;;;;;;1.63;1.33;;;20.70;53.50;;;;;;4130442;28;20030;-46
2021/08/11 03:20:25;;;;;;;1.50;1.30;;;20.70;53.50;;;;;;4131445;28;20022;-46
2021/08/11 03:22:27;;;;;;;1.77;1.58;;;20.70;53.50;;;;;;4129759;28;20161;-46
2021/08/11 03:24:29;;;;;;;2.55;1.50;;;20.80;53.60;;;;;;4133148;28;20045;-48
2021/08/11 03:26:32;;;;;;;2.25;1.60;;;20.80;53.30;;;;;;4130804;28;20720;-50
2021/08/11 03:28:34;;;;;;;3.78;1.85;;;20.90;53.60;;;;;;4129138;28;20550;-47
2021/08/11 03:30:37;;;;;;;4.18;1.70;;;20.90;53.60;;;;;;4128891;28;22189;-47
2021/08/11 03:32:39;;;;;;;2.65;1.73;;;21.00;53.40;;;;;;4130493;28;20358;-50
2021/08/11 03:34:41;;;;;;;2.25;1.40;;;21.10;53.50;;;;;;4130768;28;20442;-51
2021/08/11 03:36:43;;;;;;;3.20;1.50;;;21.20;53.50;;;;;;4114764;28;20156;-46
2021/08/11 03:38:46;;;;;;;2.83;1.52;;;21.30;53.60;;;;;;4116037;28;20121;-48
2021/08/11 03:40:48;;;;;;;3.78;1.90;;;21.30;53.70;;;;;;4112398;28;20112;-53
2021/08/11 03:42:50;;;;;;;2.85;1.58;;;21.40;53.10;;;;;;4115130;28;20612;-49
2021/08/11 03:44:52;;;;;;;3.40;1.70;;;21.40;52.30;;;;;;4115912;28;20058;-49
2021/08/11 03:46:54;;;;;;;3.58;1.80;;;21.50;51.80;;;;;;4114729;28;20033;-45
2021/08/11 03:48:56;;;;;;;3.30;1.40;;;21.50;51.90;;;;;;4113988;28;20402;-49
2021/08/11 03:50:59;;;;;;;2.60;1.63;;;21.60;51.70;;;;;;4115590;28;20402;-46
2021/08/11 03:53:01;;;;;;;3.45;1.73;;;21.60;50.80;;;;;;4114429;28;20046;-49
2021/08/11 03:55:03;;;;;;;5.47;1.65;;;21.60;50.20;;;;;;4114012;28;20563;-46
2021/08/11 03:57:05;;;;;;;2.70;1.70;;;21.60;50.50;;;;;;4116278;28;20983;-46
2021/08/11 03:59:07;;;;;;;3.80;1.60;;;21.60;50.30;;;;;;4115009;28;20488;-46
2021/08/11 04:01:09;;;;;;;3.03;1.58;;;21.70;50.20;;;;;;4116136;28;20033;-45
2021/08/11 04:03:11;;;;;;;5.50;1.88;;;21.70;50.30;;;;;;4115387;28;20085;-50
2021/08/11 04:05:14;;;;;;;2.85;1.73;;;21.80;50.50;;;;;;4118903;28;20034;-46
2021/08/11 04:07:16;;;;;;;3.17;1.60;;;21.80;50.50;;;;;;4110684;28;20043;-49
2021/08/11 04:09:24;;;;;;;4.10;1.70;;;21.80;50.30;;;;;;4115856;28;20269;-46
2021/08/11 04:11:26;;;;;;;3.45;1.55;;;21.90;49.90;;;;;;4115696;28;20042;-47
2021/08/11 04:13:28;;;;;;;2.33;1.35;;;21.90;50.00;;;;;;4120318;28;20046;-48
2021/08/11 04:15:30;;;;;;;3.30;1.40;;;22.00;50.00;;;;;;4124905;28;20042;-47
2021/08/11 04:17:32;;;;;;;2.78;1.55;;;22.00;49.80;;;;;;4124266;28;20116;-50
2021/08/11 04:19:35;;;;;;;4.03;1.50;;;22.10;50.00;;;;;;4124054;28;20428;-47
2021/08/11 04:21:38;;;;;;;2.75;1.60;;;22.10;49.90;;;;;;4135294;28;20026;-50
2021/08/11 04:23:40;;;;;;;3.65;1.55;;;22.10;49.90;;;;;;4125323;28;20152;-52
2021/08/11 04:25:42;;;;;;;3.55;1.30;;;22.20;49.60;;;;;;4128062;28;20057;-47
2021/08/11 04:27:44;;;;;;;1.92;1.30;;;22.20;49.60;;;;;;4118854;28;20034;-47
2021/08/11 04:29:46;;;;;;;2.08;1.15;;;22.30;49.30;;;;;;4117151;28;20129;-46
2021/08/11 04:31:48;;;;;;;3.45;1.50;;;22.30;49.20;;;;;;4114983;28;20125;-47
2021/08/11 04:33:50;;;;;;;1.67;1.15;;;22.40;48.90;;;;;;4117153;28;20037;-49
2021/08/11 04:35:52;;;;;;;3.33;1.55;;;22.50;48.30;;;;;;4127855;28;20393;-48
2021/08/11 04:37:56;;;;;;;2.75;1.58;;;22.50;47.90;;;;;;4132550;28;20846;-48
2021/08/11 04:39:58;;;;;;;4.50;1.50;;;22.60;47.50;;;;;;4133605;28;20574;-47
2021/08/11 04:42:00;;;;;;;3.25;1.50;;;22.70;47.60;;;;;;4133980;28;20037;-52
2021/08/11 04:44:03;;;;;;;2.90;1.50;;;22.80;47.50;;;;;;4134993;28;20372;-50
2021/08/11 04:46:05;;;;;;;3.00;1.50;;;22.90;46.60;;;;;;4133768;28;20109;-49
2021/08/11 04:48:07;;;;;;;3.10;1.50;;;23.00;46.30;;;;;;4132628;28;20044;-50
2021/08/11 04:50:10;;;;;;;2.13;1.20;;;23.00;47.20;;;;;;4134763;28;20025;-47
2021/08/11 04:52:12;;;;;;;2.97;1.30;;;23.10;46.40;;;;;;4131380;28;20032;-48
2021/08/11 04:54:15;;;;;;;2.65;1.20;;;23.20;46.00;;;;;;4131516;28;20341;-49
2021/08/11 04:56:18;;;;;;;;;;;23.30;45.20;;;;;;4133209;28;20156;-52
2021/08/11 04:58:21;;;;;;;2.73;1.30;;;23.30;45.10;;;;;;4133815;28;19917;-49
2021/08/11 05:00:23;;;;;;;4.05;1.25;;;23.40;43.60;;;;;;4135617;28;20286;-48
2021/08/11 05:02:25;;;;;;;2.47;1.20;;;23.50;43.40;;;;;;4133958;28;20160;-49
2021/08/11 05:04:27;;;;;;;2.35;1.35;;;23.50;42.50;;;;;;4131779;28;20144;-51
2021/08/11 05:06:30;;;;;;;3.17;1.50;;;23.60;42.40;;;;;;4134857;28;20561;-47
2021/08/11 05:08:32;;;;;;;2.08;1.40;;;23.60;42.90;;;;;;4134303;28;20155;-49
2021/08/11 05:10:34;;;;;;;4.35;1.48;;;23.70;43.20;;;;;;4131277;28;20068;-51
2021/08/11 05:12:37;;;;;;;4.03;1.67;;;23.70;43.60;;;;;;4134534;28;20056;-53
2021/08/11 05:14:39;;;;;;;2.80;1.00;;;23.80;43.70;;;;;;4133545;28;20049;-50
2021/08/11 05:16:41;;;;;;;2.53;1.25;;;23.80;44.30;;;;;;4131598;28;20072;-45
2021/08/11 05:18:43;;;;;;;2.60;1.50;;;23.80;44.10;;;;;;4131919;28;20842;-48
2021/08/11 05:20:45;;;;;;;1.85;1.17;;;23.80;44.70;;;;;;4134064;28;20049;-48
2021/08/11 05:22:49;;;;;;;2.80;1.30;;;23.80;44.80;;;;;;4134679;28;20137;-48
2021/08/11 05:24:51;;;;;;;2.38;1.58;;;23.80;44.60;;;;;;4134572;28;20041;-48
2021/08/11 05:26:53;;;;;;;2.40;1.27;;;23.80;44.60;;;;;;4132752;28;20067;-51
2021/08/11 05:28:56;;;;;;;2.23;1.23;;;23.70;44.80;;;;;;4133585;28;20437;-54
2021/08/11 05:30:58;;;;;;;3.00;1.67;;;23.70;44.70;;;;;;4131818;28;20469;-51
2021/08/11 05:33:00;;;;;;;4.22;1.48;;;23.70;45.20;;;;;;4131066;28;20573;-56
2021/08/11 05:35:04;;;;;;;2.85;1.42;;;23.70;45.10;;;;;;4128079;28;20044;-51
2021/08/11 05:37:06;;;;;;;2.80;1.30;;;23.70;45.20;;;;;;4113988;28;20716;-52
2021/08/11 05:39:08;;;;;;;1.92;1.48;;;23.70;45.20;;;;;;4117431;28;20129;-57
2021/08/11 05:41:10;;;;;;;1.95;1.30;;;23.70;45.20;;;;;;4114846;28;20375;-53
2021/08/11 05:43:12;;;;;;;3.85;1.42;;;23.70;45.30;;;;;;4116254;28;20027;-55
2021/08/11 05:45:15;;;;;;;1.90;1.38;;;23.80;45.50;;;;;;4112375;28;20026;-53
2021/08/11 05:47:17;;;;;;;4.00;1.60;;;23.80;45.20;;;;;;4115603;28;20064;-55
2021/08/11 05:49:19;;;;;;;1.40;1.08;;;23.80;44.70;;;;;;4113814;28;20868;-52
2021/08/11 05:51:21;;;;;;;7.15;1.70;;;23.80;45.10;;;;;;4115249;28;20041;-49
2021/08/11 05:53:30;;;;;;;2.92;1.20;;;23.80;44.70;;;;;;4115706;28;20034;-51
2021/08/11 05:55:33;;;;;;;2.97;1.35;;;23.80;45.10;;;;;;4106527;28;20490;-51
2021/08/11 05:57:39;;;;;;;3.28;1.50;;;23.80;45.40;;;;;;4114443;28;20629;-54
2021/08/11 05:59:41;;;;;;;3.03;1.30;;;23.80;45.30;;;;;;4114487;28;20041;-50
2021/08/11 06:01:43;;;;;;;3.15;1.58;;;23.80;45.20;;;;;;4116093;28;21311;-54
2021/08/11 06:03:45;;;;;;;3.13;1.27;;;23.80;45.20;;;;;;4111305;28;20042;-51
2021/08/11 06:05:48;;;;;;;2.58;1.25;;;23.80;45.70;;;;;;4114837;28;20036;-51
2021/08/11 06:07:50;;;;;;;3.47;1.70;;;23.70;44.90;;;;;;4114448;28;20038;-55
2021/08/11 06:09:52;;;;;;;2.88;1.20;;;23.70;45.20;;;;;;4115692;28;20045;-56
2021/08/11 06:11:54;;;;;;;3.00;1.20;;;23.70;45.50;;;;;;4116317;28;20033;-54
2021/08/11 06:13:56;;;;;;;2.05;1.10;;;23.70;45.70;;;;;;4113935;28;20441;-55
2021/08/11 06:15:58;;;;;;;3.22;1.17;;;23.60;45.30;;;;;;4117132;28;20023;-52
2021/08/11 06:18:00;;;;;;;2.30;0.90;;;23.60;45.40;;;;;;4115495;28;20038;-52
2021/08/11 06:20:02;;;;;;;1.85;0.93;;;23.60;45.20;;;;;;4114270;28;21338;-50
2021/08/11 06:22:05;;;;;;;3.35;1.63;;;23.60;45.80;;;;;;4115119;28;20546;-51
2021/08/11 06:24:07;;;;;;;1.38;1.20;;;23.50;45.80;;;;;;4115262;28;20069;-53
2021/08/11 06:26:09;;;;;;;4.45;1.40;;;23.50;45.30;;;;;;4116555;28;20026;-57
2021/08/11 06:28:12;;;;;;;2.83;1.20;;;23.50;45.40;;;;;;4116288;28;20697;-53
2021/08/11 06:30:14;;;;;;;4.77;1.30;;;23.50;45.20;;;;;;4115760;28;20483;-55
2021/08/11 06:32:17;;;;;;;3.22;1.38;;;23.50;45.60;;;;;;4115761;28;20280;-54
2021/08/11 06:34:19;;;;;;;2.35;1.10;;;23.50;45.70;;;;;;4116528;28;20540;-50
2021/08/11 06:36:22;;;;;;;1.90;1.33;;;23.50;45.60;;;;;;4116812;28;20495;-53
2021/08/11 06:38:24;;;;;;;1.83;1.30;;;23.50;45.50;;;;;;4115753;28;20467;-54
2021/08/11 06:40:26;;;;;;;3.05;1.35;;;23.50;45.60;;;;;;4102095;28;20173;-52
2021/08/11 06:42:28;;;;;;;2.15;1.02;;;23.50;45.50;;;;;;4117736;28;20108;-51
2021/08/11 06:44:30;;;;;;;1.67;1.25;;;23.50;45.50;;;;;;4114210;28;20133;-55
2021/08/11 06:46:32;;;;;;;2.65;1.30;;;23.50;45.80;;;;;;4112814;28;20026;-57
2021/08/11 06:48:37;;;;;;;2.15;1.10;;;23.50;45.40;;;;;;4116086;28;20841;-59
2021/08/11 06:50:39;;;;;;;3.72;1.45;;;23.50;45.40;;;;;;4114312;28;20138;-53
2021/08/11 06:52:41;;;;;;;2.55;1.30;;;23.50;45.30;;;;;;4117404;28;20141;-50
2021/08/11 06:54:43;;;;;;;2.92;1.45;;;23.50;45.50;;;;;;4113953;28;20543;-53
2021/08/11 06:56:45;;;;;;;2.13;1.25;;;23.40;45.10;;;;;;4114255;28;20157;-53
2021/08/11 06:58:47;;;;;;;3.03;1.60;;;23.40;44.80;;;;;;4114405;28;20406;-56
2021/08/11 07:00:50;;;;;;;3.63;1.38;;;23.40;44.60;;;;;;4115199;28;20034;-55
2021/08/11 07:02:52;;;;;;;3.10;1.65;;;23.40;44.20;;;;;;4114059;28;20454;-51
2021/08/11 07:04:54;;;;;;;2.88;1.60;;;23.40;44.20;;;;;;4116264;28;20034;-55
2021/08/11 07:06:56;;;;;;;2.42;1.42;;;23.40;44.40;;;;;;4113381;28;20539;-56
2021/08/11 07:08:58;;;;;;;2.70;1.60;;;23.40;44.40;;;;;;4115231;28;20112;-53
2021/08/11 07:11:00;;;;;;;2.42;1.25;;;23.30;43.60;;;;;;4114099;28;20026;-50
2021/08/11 07:13:03;;;;;;;5.00;1.60;;;23.30;43.90;;;;;;4115307;28;20041;-53
2021/08/11 07:15:07;;;;;;;3.70;1.63;;;23.30;44.10;;;;;;4116004;28;20026;-51
2021/08/11 07:17:09;;;;;;;2.80;1.73;;;23.30;44.20;;;;;;4113469;28;20025;-52
2021/08/11 07:19:11;;;;;;;3.42;1.50;;;23.30;44.20;;;;;;4116355;28;20048;-54
2021/08/11 07:21:13;;;;;;;3.83;1.80;;;23.30;43.90;;;;;;4116285;28;20037;-55
2021/08/11 07:23:15;;;;;;;3.95;1.50;;;23.20;43.30;;;;;;4113963;28;20508;-48
2021/08/11 07:25:18;;;;;;;2.92;1.65;;;23.20;44.30;;;;;;4113730;28;20035;-56
2021/08/11 07:27:23;;;;;;;3.63;1.58;;;23.20;43.60;;;;;;4116332;28;20975;-53
2021/08/11 07:29:25;;;;;;;4.32;1.60;;;23.20;43.80;;;;;;4114972;28;20360;-53
2021/08/11 07:31:27;;;;;;;3.63;1.67;;;23.20;44.30;;;;;;4117183;28;20086;-57
2021/08/11 07:33:29;;;;;;;3.97;1.95;;;23.20;44.50;;;;;;4115182;28;20253;-53
2021/08/11 07:35:31;;;;;;;2.67;1.45;;;23.20;44.90;;;;;;4117084;28;20053;-54
2021/08/11 07:37:43;;;;;;;2.83;1.30;;;23.20;45.80;;;;;;4115225;28;20447;-54
2021/08/11 07:39:45;;;;;;;1.98;1.45;;;23.20;46.20;;;;;;4117154;28;20073;-50
2021/08/11 07:41:47;;;;;;;2.08;1.20;;;23.20;46.50;;;;;;4111706;28;20546;-52
2021/08/11 07:43:49;;;;;;;1.83;1.00;;;23.20;47.00;;;;;;4115733;28;20543;-54
2021/08/11 07:45:52;;;;;;;2.17;1.38;;;23.20;47.10;;;;;;4114495;28;20062;-53
2021/08/11 07:47:54;;;;;;;2.55;1.33;;;23.20;47.20;;;;;;4117102;28;20143;-54
2021/08/11 07:49:56;;;;;;;1.77;1.20;;;23.20;47.30;;;;;;4118471;28;20044;-54
2021/08/11 07:51:59;;;;;;;5.28;1.30;;;23.20;47.50;;;;;;4116941;28;20336;-52
2021/08/11 07:54:01;;;;;;;2.65;1.17;;;23.20;47.80;;;;;;4118367;28;20026;-55
2021/08/11 07:56:03;;;;;;;2.88;1.40;;;23.30;47.90;;;;;;4106665;28;20147;-56
2021/08/11 07:58:05;;;;;;;3.20;1.30;;;23.20;47.80;;;;;;4117240;28;20038;-55
2021/08/11 08:00:09;;;;;;;1.90;0.90;;;23.20;48.20;;;;;;4117728;28;20137;-49
2021/08/11 08:02:13;;;;;;;1.45;1.10;;;23.20;48.20;;;;;;4119771;28;20129;-47
2021/08/11 08:04:15;;;;;;;2.40;0.90;;;23.20;48.40;;;;;;4115237;28;20081;-52
2021/08/11 08:06:17;;;;;;;3.03;1.02;;;23.20;48.40;;;;;;4118823;28;20109;-51
2021/08/11 08:08:19;;;;;;;1.73;1.13;;;23.20;48.50;;;;;;4116139;28;20048;-51
2021/08/11 08:10:21;;;;;;;1.90;0.82;;;23.10;48.50;;;;;;4118966;28;20045;-53
2021/08/11 08:12:23;;;;;;;1.25;0.80;;;23.10;48.60;;;;;;4118952;28;20506;-54
2021/08/11 08:14:26;;;;;;;1.40;0.80;;;23.10;48.60;;;;;;4117103;28;20063;-55
2021/08/11 08:16:28;;;;;;;1.10;0.77;;;23.10;48.70;;;;;;4117460;28;20098;-51
2021/08/11 08:18:30;;;;;;;2.42;0.98;;;23.00;48.60;;;;;;4118519;28;20249;-53
2021/08/11 08:20:34;;;;;;;1.08;0.80;;;23.00;48.70;;;;;;4113972;28;20164;-51
2021/08/11 08:22:36;;;;;;;1.83;1.00;;;23.00;48.70;;;;;;4117789;28;20030;-49
2021/08/11 08:24:38;;;;;;;1.10;0.82;;;23.00;48.80;;;;;;4117572;28;20743;-50
2021/08/11 08:26:42;;;;;;;2.07;1.20;;;23.00;49.10;;;;;;4116758;28;20988;-54
2021/08/11 08:28:48;;;;;;;1.83;1.10;;;23.00;49.30;;;;;;4117712;28;20428;-50
2021/08/11 08:30:50;;;;;;;1.92;0.90;;;23.00;49.50;;;;;;4116577;28;20033;-48
2021/08/11 08:32:52;;;;;;;1.23;0.98;;;23.00;50.40;;;;;;4118523;28;20026;-51
2021/08/11 08:34:54;;;;;;;3.08;1.10;;;23.00;49.80;;;;;;4116388;28;20514;-54
2021/08/11 08:36:57;;;;;;;1.65;1.10;;;23.00;49.80;;;;;;4131403;28;20050;-54
2021/08/11 08:38:59;;;;;;;2.00;1.13;;;23.00;50.10;;;;;;4135178;28;20030;-50
2021/08/11 08:41:02;;;;;;;3.30;1.08;;;23.00;50.50;;;;;;4130091;28;20037;-53
2021/08/11 08:43:06;;;;;;;1.00;0.90;;;23.00;49.90;;;;;;4132253;28;20030;-55
2021/08/11 08:45:11;;;;;;;1.75;0.93;;;23.00;50.10;;;;;;4127987;28;20147;-55
2021/08/11 08:47:15;;;;;;;2.05;1.00;;;23.00;50.40;;;;;;4130486;28;20028;-56
2021/08/11 08:49:18;;;;;;;2.67;1.45;;;23.00;50.40;;;;;;4132033;28;20072;-54
2021/08/11 08:51:23;;;;;;;1.50;0.90;;;23.00;50.50;;;;;;4131298;28;20581;-49
2021/08/11 08:53:25;;;;;;;1.73;1.20;;;23.00;50.40;;;;;;4132270;28;20661;-51
2021/08/11 08:55:27;;;;;;;3.67;1.30;;;23.00;50.70;;;;;;4130417;28;20503;-55
2021/08/11 08:57:29;;;;;;;1.53;0.80;;;23.00;50.50;;;;;;4130726;28;21170;-55
2021/08/11 08:59:32;;;;;;;1.70;1.13;;;23.00;51.10;;;;;;4129999;28;20536;-51
2021/08/11 09:01:37;;;;;;;1.05;0.88;;;23.00;50.80;;;;;;4119351;28;20082;-48
2021/08/11 09:03:40;;;;;;;1.52;1.15;;;23.00;51.10;;;;;;4130243;28;20246;-51
2021/08/11 09:05:42;;;;;;;0.77;0.75;;;23.00;50.90;;;;;;4130545;28;20128;-52
2021/08/11 09:07:48;;;;;;;1.15;0.70;;;23.00;51.20;;;;;;4132126;28;20190;-50
2021/08/11 09:09:50;;;;;;;0.52;0.52;;;23.00;50.90;;;;;;4131836;28;20101;-55
2021/08/11 09:12:18;;;;;;;1.52;1.02;;;23.00;51.40;;;;;;4129411;28;20329;-49
2021/08/11 09:14:28;;;;;;;1.70;0.98;;;23.00;51.10;;;;;;4132770;28;20042;-50
2021/08/11 09:16:30;;;;;;;1.70;0.90;;;23.00;51.40;;;;;;4130922;28;20030;-46
2021/08/11 09:18:32;;;;;;;1.83;0.75;;;23.00;51.40;;;;;;4133275;28;20406;-51
2021/08/11 09:20:34;;;;;;;2.55;0.98;;;23.00;51.50;;;;;;4130816;28;20043;-51
2021/08/11 09:22:47;;;;;;;0.88;0.80;;;23.00;51.30;;;;;;4135767;28;20125;-51
2021/08/11 09:25:02;;;;;;;2.10;0.90;;;22.90;51.30;;;;;;4145494;28;20951;-46
2021/08/11 09:28:09;;;;;;;2.33;1.25;;;22.90;51.80;;;;;;4139418;28;20030;-50
2021/08/11 09:30:51;;;;;;;3.03;1.55;;;23.00;51.40;;;;;;4148156;28;20034;-54
2021/08/11 09:32:59;;;;;;;1.85;1.20;;;23.30;50.50;;;;;;4140112;28;20441;-52
2021/08/11 09:35:07;;;;;;;1.42;1.10;;;23.80;49.60;;;;;;4139993;28;20302;-47
2021/08/11 09:37:10;;;;;;;1.15;1.00;;;24.40;48.50;;;;;;4120028;28;20365;-50
2021/08/11 09:39:12;;;;;;;1.80;1.27;;;24.90;47.50;;;;;;4120571;28;20031;-53
2021/08/11 09:41:14;;;;;;;2.37;1.53;;;25.40;46.90;;;;;;4118146;28;20034;-52
2021/08/11 09:43:18;;;;;;;2.90;1.45;;;25.70;46.60;;;;;;4115173;28;20029;-48
2021/08/11 09:45:21;;;;;;;2.63;1.33;;;25.60;46.90;;;;;;4116538;28;20466;-48
2021/08/11 09:47:23;;;;;;;2.08;1.23;;;25.40;47.50;;;;;;4116647;28;20051;-49
2021/08/11 09:49:25;;;;;;;2.10;0.90;;;25.30;48.00;;;;;;4118059;28;21203;-51
2021/08/11 09:51:27;;;;;;;1.13;1.00;;;25.10;48.40;;;;;;4115710;28;20038;-52
2021/08/11 09:53:29;;;;;;;2.55;1.05;;;25.00;48.60;;;;;;4116436;28;20467;-53
2021/08/11 09:55:51;;;;;;;2.05;1.10;;;24.90;48.90;;;;;;4115982;28;20068;-49
2021/08/11 09:57:53;;;;;;;1.70;1.17;;;24.80;49.10;;;;;;4116144;28;20634;-52
2021/08/11 09:59:57;;;;;;;2.30;1.25;;;24.70;49.60;;;;;;4116353;28;20038;-52
2021/08/11 10:02:16;;;;;;;1.52;0.90;;;24.60;49.30;;;;;;4113108;28;20109;-52
2021/08/11 10:04:20;;;;;;;1.23;1.02;;;24.60;49.70;;;;;;4115320;28;20117;-48
2021/08/11 10:06:26;;;;;;;0.95;0.85;;;24.60;49.80;;;;;;4113054;28;20034;-52
2021/08/11 10:08:33;;;;;;;0.82;0.70;;;24.50;49.70;;;;;;4114525;28;20177;-52
2021/08/11 10:10:49;;;;;;;1.00;0.80;;;24.40;49.90;;;;;;4117080;28;20531;-54
2021/08/11 10:12:53;;;;;;;1.45;0.82;;;24.40;50.10;;;;;;4115195;28;20316;-52
2021/08/11 10:15:00;;;;;;;0.70;0.68;;;24.30;50.10;;;;;;4117348;28;20048;-53
2021/08/11 10:17:03;;;;;;;2.50;1.08;;;24.30;50.40;;;;;;4112203;28;20143;-53
2021/08/11 10:19:08;;;;;;;1.02;0.70;;;24.30;50.20;;;;;;4116078;28;20136;-51
2021/08/11 10:21:11;;;;;;;0.95;0.80;;;24.30;50.50;;;;;;4116171;28;20065;-53
2021/08/11 10:23:18;;;;;;;0.60;0.57;;;24.20;50.40;;;;;;4116042;28;20035;-54
2021/08/11 10:25:22;;;;;;;0.60;0.60;;;24.20;50.30;;;;;;4115654;28;20061;-53
2021/08/11 10:27:25;;;;;;;0.60;0.50;;;24.20;50.30;;;;;;4116651;28;20029;-49
2021/08/11 10:29:29;;;;;;;0.82;0.50;;;24.20;51.00;;;;;;4114374;28;20202;-49
2021/08/11 10:31:33;;;;;;;3.55;0.60;;;24.20;50.60;;;;;;4117520;28;20034;-54
2021/08/11 10:33:37;;;;;;;1.15;0.90;;;24.10;50.60;;;;;;4116318;28;20030;-54
2021/08/11 10:35:40;;;;;;;1.80;0.70;;;24.10;50.70;;;;;;4118360;28;20074;-55
2021/08/11 10:37:43;;;;;;;0.55;0.43;;;24.10;50.90;;;;;;4114801;28;20037;-56
2021/08/11 10:39:46;;;;;;;0.60;0.60;;;24.00;50.80;;;;;;4116647;28;20178;-55
2021/08/11 10:41:48;;;;;;;0.73;0.57;;;24.10;50.90;;;;;;4116794;28;20034;-48
2021/08/11 10:43:50;;;;;;;0.85;0.52;;;24.00;50.90;;;;;;4115203;28;20569;-54
2021/08/11 10:46:01;;;;;;;1.15;0.80;;;24.00;50.80;;;;;;4116298;28;20029;-56
2021/08/11 10:48:15;;;;;;;0.70;0.50;;;24.00;50.90;;;;;;4116064;28;20048;-55
2021/08/11 10:50:17;;;;;;;0.77;0.50;;;24.00;51.00;;;;;;4110369;28;20527;-56